Time;durP1;ratioP1;P1;durP2;ratioP2;P2;SDS_P1;SDS_P2;PMS_P1;PMS_P2;Temp;Humidity;BMP_temperature;BMP_pressure;BME280_temperature;BME280_humidity;BME280_pressure;Samples;Min_cycle;Max_cycle;Signal;HPM_P1;HPM_P2
2022/08/28 00:02:02;;;;;;;;;;;20.40;76.30;;;;;;5067161;28;20400;-68
2022/08/28 00:04:27;;;;;;;;;;;20.40;76.30;;;;;;5050991;28;19954;-68
2022/08/28 00:06:53;;;;;;;;;;;20.30;76.30;;;;;;5069053;28;19912;-68
2022/08/28 00:09:18;;;;;;;;;;;20.40;76.30;;;;;;5068800;28;19959;-68
2022/08/28 00:11:45;;;;;;;;;;;20.30;76.30;;;;;;5068372;28;20031;-68
2022/08/28 00:14:11;;;;;;;;;;;20.30;76.30;;;;;;5050649;28;20377;-68
2022/08/28 00:16:37;;;;;;;;;;;20.30;76.30;;;;;;5068019;28;19915;-68
2022/08/28 00:19:03;;;;;;;;;;;20.30;76.30;;;;;;5069004;28;20403;-68
2022/08/28 00:21:31;;;;;;;;;;;20.30;76.30;;;;;;5050398;28;20595;-68
2022/08/28 00:23:58;;;;;;;;;;;20.20;76.30;;;;;;5068114;28;19916;-68
2022/08/28 00:29:07;;;;;;;;;;;20.20;76.30;;;;;;5067872;28;19930;-68
2022/08/28 00:31:33;;;;;;;;;;;20.20;76.30;;;;;;5066909;28;19916;-68
2022/08/28 00:34:01;;;;;;;;;;;20.10;76.30;;;;;;5063064;28;19917;-68
2022/08/28 00:36:27;;;;;;;;;;;20.10;76.30;;;;;;5068118;28;20361;-68
2022/08/28 00:38:53;;;;;;;;;;;20.10;76.30;;;;;;5068117;28;19912;-68
2022/08/28 00:41:19;;;;;;;;;;;20.10;76.40;;;;;;5067423;28;19912;-68
2022/08/28 00:43:47;;;;;;;;;;;20.00;76.20;;;;;;5068103;28;19956;-68
2022/08/28 00:46:18;;;;;;;;;;;20.00;76.30;;;;;;5068635;28;19916;-68
2022/08/28 00:48:44;;;;;;;;;;;20.00;76.40;;;;;;5068865;28;20520;-68
2022/08/28 00:53:56;;;;;;;;;;;20.00;76.30;;;;;;5068229;28;19995;-68
2022/08/28 00:56:21;;;;;;;;;;;20.00;76.40;;;;;;5067397;28;19912;-68
2022/08/28 00:58:48;;;;;;;;;;;20.00;76.40;;;;;;5067751;28;19927;-68
2022/08/28 01:01:13;;;;;;;;;;;19.90;76.30;;;;;;5067204;28;19920;-68
2022/08/28 01:03:41;;;;;;;;;;;19.90;76.30;;;;;;5066682;28;19912;-68
2022/08/28 01:06:09;;;;;;;;;;;19.90;76.30;;;;;;5067757;28;19920;-68
2022/08/28 01:08:36;;;;;;;;;;;19.90;76.40;;;;;;5068211;28;19912;-68
2022/08/28 01:11:03;;;;;;;;;;;19.90;76.40;;;;;;5061505;28;19955;-68
2022/08/28 01:13:29;;;;;;;;;;;19.90;76.40;;;;;;5060545;28;19955;-68
2022/08/28 01:15:56;;;;;;;;;;;19.80;76.40;;;;;;5067120;28;19931;-68
2022/08/28 01:18:22;;;;;;;;;;;19.80;76.40;;;;;;5067411;28;19909;-68
2022/08/28 01:20:54;;;;;;;;;;;19.80;76.60;;;;;;5068005;28;19913;-68
2022/08/28 01:23:38;;;;;;;;;;;19.80;76.50;;;;;;5067373;28;19912;-68
2022/08/28 01:26:04;;;;;;;;;;;19.70;76.40;;;;;;5066083;28;19912;-68
2022/08/28 01:28:29;;;;;;;;;;;19.80;76.60;;;;;;5067128;28;20014;-68
2022/08/28 01:30:55;;;;;;;;;;;19.70;76.60;;;;;;5067162;28;19921;-68
2022/08/28 01:33:20;;;;;;;;;;;19.70;76.60;;;;;;5063641;28;19912;-68
2022/08/28 01:35:47;;;;;;;;;;;19.70;76.60;;;;;;5067517;28;20372;-68
2022/08/28 01:38:12;;;;;;;;;;;19.70;76.60;;;;;;5067302;28;19961;-69
2022/08/28 01:40:40;;;;;;;;;;;19.70;76.50;;;;;;5066702;28;19912;-68
2022/08/28 01:43:07;;;;;;;;;;;19.60;76.60;;;;;;5066558;28;19917;-68
2022/08/28 01:45:34;;;;;;;;;;;19.60;76.60;;;;;;5066976;28;19916;-68
2022/08/28 01:48:00;;;;;;;;;;;19.60;76.60;;;;;;5066082;28;19916;-68
2022/08/28 01:50:25;;;;;;;;;;;19.60;76.50;;;;;;5048774;28;19947;-68
2022/08/28 01:52:51;;;;;;;;;;;19.60;76.50;;;;;;5066632;28;19913;-68
2022/08/28 01:55:16;;;;;;;;;;;19.60;76.60;;;;;;5066813;28;19916;-68
2022/08/28 01:57:49;;;;;;;;;;;19.50;76.60;;;;;;5066637;28;20263;-68
2022/08/28 02:00:15;;;;;;;;;;;19.50;76.60;;;;;;5066271;28;19913;-68
2022/08/28 02:02:41;;;;;;;;;;;19.50;76.60;;;;;;5066112;28;20472;-68
2022/08/28 02:05:07;;;;;;;;;;;19.50;76.60;;;;;;5066749;28;19921;-68
2022/08/28 02:07:33;;;;;;;;;;;19.40;76.50;;;;;;5066402;28;19917;-68
2022/08/28 02:09:58;;;;;;;;;;;19.40;76.60;;;;;;5066261;28;19938;-68
2022/08/28 02:12:24;;;;;;;;;;;19.40;76.60;;;;;;5065839;28;19916;-68
2022/08/28 02:14:49;;;;;;;;;;;19.40;76.50;;;;;;5048105;28;19923;-68
2022/08/28 02:17:15;;;;;;;;;;;19.40;76.60;;;;;;5065167;28;19916;-67
2022/08/28 02:19:40;;;;;;;;;;;19.40;76.60;;;;;;5066315;28;20503;-68
2022/08/28 02:22:08;;;;;;;;;;;19.40;76.60;;;;;;5066148;28;19908;-67
2022/08/28 02:24:36;;;;;;;;;;;19.30;76.60;;;;;;5048103;28;19962;-68
2022/08/28 02:27:02;;;;;;;;;;;19.30;76.60;;;;;;5065945;28;19954;-68
2022/08/28 02:29:27;;;;;;;;;;;19.30;76.60;;;;;;5065497;28;20620;-68
2022/08/28 02:31:53;;;;;;;;;;;19.30;76.60;;;;;;5064793;28;19924;-67
2022/08/28 02:34:18;;;;;;;;;;;19.30;76.70;;;;;;5059603;28;20555;-68
2022/08/28 02:36:44;;;;;;;;;;;19.30;76.60;;;;;;5047990;28;19913;-67
2022/08/28 02:39:10;;;;;;;;;;;19.20;76.60;;;;;;5048191;28;19913;-68
2022/08/28 02:41:35;;;;;;;;;;;19.20;76.60;;;;;;5065195;28;19916;-67
2022/08/28 02:44:01;;;;;;;;;;;19.20;76.60;;;;;;5065810;28;19917;-68
2022/08/28 02:46:26;;;;;;;;;;;19.10;76.60;;;;;;5065504;28;19962;-68
2022/08/28 02:48:52;;;;;;;;;;;19.20;76.70;;;;;;5065863;28;19919;-68
2022/08/28 02:51:18;;;;;;;;;;;19.20;76.70;;;;;;5046884;28;20026;-68
2022/08/28 02:53:44;;;;;;;;;;;19.10;76.70;;;;;;5057547;28;20407;-68
2022/08/28 02:56:11;;;;;;;;;;;19.10;76.70;;;;;;5065553;28;19913;-68
2022/08/28 02:58:38;;;;;;;;;;;19.10;76.80;;;;;;5065506;28;19919;-68
2022/08/28 03:01:05;;;;;;;;;;;19.10;76.70;;;;;;5065364;28;19991;-67
2022/08/28 03:03:31;;;;;;;;;;;19.10;76.70;;;;;;5064548;28;19920;-68
2022/08/28 03:05:58;;;;;;;;;;;19.00;76.70;;;;;;5046575;28;19923;-68
2022/08/28 03:08:24;;;;;;;;;;;19.00;76.70;;;;;;5065308;28;20572;-67
2022/08/28 03:10:49;;;;;;;;;;;19.00;76.80;;;;;;5064849;28;19916;-67
2022/08/28 03:13:16;;;;;;;;;;;19.00;76.80;;;;;;5065415;28;19948;-67
2022/08/28 03:15:42;;;;;;;;;;;19.00;76.80;;;;;;5065449;28;19916;-67
2022/08/28 03:18:08;;;;;;;;;;;19.00;76.80;;;;;;5065488;28;19913;-67
2022/08/28 03:20:34;;;;;;;;;;;18.90;76.80;;;;;;5063074;28;19965;-67
2022/08/28 03:25:44;;;;;;;;;;;18.90;76.80;;;;;;5065490;28;19919;-67
2022/08/28 03:28:09;;;;;;;;;;;18.90;76.80;;;;;;5065279;28;19999;-67
2022/08/28 03:30:35;;;;;;;;;;;18.90;76.80;;;;;;5064976;28;19924;-67
2022/08/28 03:33:00;;;;;;;;;;;18.90;77.50;;;;;;5060155;28;19920;-67
2022/08/28 03:35:26;;;;;;;;;;;18.90;76.90;;;;;;5064915;28;19916;-67
2022/08/28 03:37:51;;;;;;;;;;;18.90;76.90;;;;;;5046577;28;19909;-67
2022/08/28 03:40:18;;;;;;;;;;;18.90;76.90;;;;;;5065387;28;19919;-67
2022/08/28 03:42:44;;;;;;;;;;;18.80;76.90;;;;;;5065750;28;19967;-67
2022/08/28 03:45:11;;;;;;;;;;;18.80;76.90;;;;;;5064973;28;21885;-67
2022/08/28 03:47:37;;;;;;;;;;;18.80;76.90;;;;;;5064975;28;19913;-67
2022/08/28 03:50:03;;;;;;;;;;;18.80;76.90;;;;;;5064983;28;20599;-67
2022/08/28 03:52:30;;;;;;;;;;;18.80;76.80;;;;;;5063842;28;19923;-67
2022/08/28 03:54:56;;;;;;;;;;;18.80;76.90;;;;;;5064504;28;20612;-67
2022/08/28 03:57:22;;;;;;;;;;;18.80;76.80;;;;;;5065051;28;19920;-67
2022/08/28 03:59:48;;;;;;;;;;;18.80;76.90;;;;;;5064963;28;19913;-67
2022/08/28 04:02:14;;;;;;;;;;;18.80;76.90;;;;;;5063787;28;20691;-67
2022/08/28 04:04:39;;;;;;;;;;;18.80;76.90;;;;;;5046347;28;20027;-67
2022/08/28 04:07:05;;;;;;;;;;;18.80;76.90;;;;;;5046482;28;19920;-67
2022/08/28 04:09:30;;;;;;;;;;;18.80;76.90;;;;;;5064924;28;20658;-67
2022/08/28 04:11:56;;;;;;;;;;;18.70;76.90;;;;;;5050985;28;19916;-67
2022/08/28 04:14:21;;;;;;;;;;;18.70;76.90;;;;;;5069132;28;19919;-67
2022/08/28 04:16:48;;;;;;;;;;;18.70;76.90;;;;;;5068811;28;19919;-67
2022/08/28 04:19:13;;;;;;;;;;;18.70;77.00;;;;;;5068749;28;19912;-67
2022/08/28 04:21:39;;;;;;;;;;;18.70;77.10;;;;;;5059491;28;20289;-67
2022/08/28 04:24:05;;;;;;;;;;;18.70;77.00;;;;;;5068218;28;19913;-67
2022/08/28 04:26:35;;;;;;;;;;;18.70;77.00;;;;;;5049600;28;20358;-67
2022/08/28 04:29:01;;;;;;;;;;;18.70;77.00;;;;;;5068468;28;20363;-67
2022/08/28 04:31:27;;;;;;;;;;;18.70;77.00;;;;;;5068303;28;19912;-67
2022/08/28 04:33:52;;;;;;;;;;;18.70;77.00;;;;;;5065311;28;19912;-67
2022/08/28 04:36:18;;;;;;;;;;;18.70;77.00;;;;;;5068395;28;19944;-67
2022/08/28 04:38:44;;;;;;;;;;;18.70;76.90;;;;;;5068245;28;20001;-67
2022/08/28 04:41:11;;;;;;;;;;;18.70;77.00;;;;;;5067438;28;20031;-67
2022/08/28 04:43:37;;;;;;;;;;;18.70;77.10;;;;;;5049490;28;19927;-67
2022/08/28 04:46:06;;;;;;;;;;;18.70;77.10;;;;;;5068342;28;20555;-67
2022/08/28 04:48:32;;;;;;;;;;;18.70;77.10;;;;;;5068715;28;19939;-67
2022/08/28 04:50:58;;;;;;;;;;;18.70;77.80;;;;;;5049680;28;20463;-67
2022/08/28 04:53:23;;;;;;;;;;;18.70;77.20;;;;;;5068247;28;19920;-67
2022/08/28 04:55:50;;;;;;;;;;;18.70;77.10;;;;;;5067076;28;19965;-68
2022/08/28 04:58:16;;;;;;;;;;;18.70;77.10;;;;;;5067570;28;19916;-67
2022/08/28 05:00:43;;;;;;;;;;;18.60;77.00;;;;;;5067686;28;19947;-67
2022/08/28 05:03:10;;;;;;;;;;;18.60;77.10;;;;;;5066609;28;19925;-67
2022/08/28 05:05:43;;;;;;;;;;;18.60;77.20;;;;;;5067919;28;19939;-67
2022/08/28 05:08:09;;;;;;;;;;;18.60;77.20;;;;;;5067664;28;19966;-67
2022/08/28 05:10:34;;;;;;;;;;;18.60;77.20;;;;;;5067285;28;19924;-67
2022/08/28 05:13:00;;;;;;;;;;;18.60;77.10;;;;;;5067402;28;19917;-67
2022/08/28 05:15:25;;;;;;;;;;;18.60;77.10;;;;;;5066812;28;20011;-67
2022/08/28 05:17:51;;;;;;;;;;;18.60;77.10;;;;;;5067757;28;19913;-67
2022/08/28 05:20:16;;;;;;;;;;;18.60;77.10;;;;;;5067713;28;19912;-67
2022/08/28 05:22:42;;;;;;;;;;;18.60;77.10;;;;;;5067255;28;19924;-67
2022/08/28 05:25:07;;;;;;;;;;;18.60;77.10;;;;;;5067207;28;20011;-67
2022/08/28 05:27:34;;;;;;;;;;;18.60;77.10;;;;;;5048310;28;19916;-67
2022/08/28 05:29:59;;;;;;;;;;;18.60;77.10;;;;;;5065596;28;19966;-67
2022/08/28 05:32:25;;;;;;;;;;;18.60;77.70;;;;;;5062142;28;20393;-67
2022/08/28 05:34:50;;;;;;;;;;;18.60;77.10;;;;;;5067451;28;19919;-67
2022/08/28 05:37:16;;;;;;;;;;;18.60;77.20;;;;;;5067150;28;20003;-67
2022/08/28 05:39:41;;;;;;;;;;;18.50;77.00;;;;;;5048926;28;19913;-67
2022/08/28 05:42:06;;;;;;;;;;;18.50;77.10;;;;;;5066710;28;19917;-67
2022/08/28 05:44:32;;;;;;;;;;;18.50;77.20;;;;;;5066704;28;20033;-68
2022/08/28 05:46:57;;;;;;;;;;;18.40;77.10;;;;;;5066972;28;19963;-67
2022/08/28 05:49:23;;;;;;;;;;;18.50;77.20;;;;;;5067025;28;20007;-67
2022/08/28 05:51:49;;;;;;;;;;;18.50;77.30;;;;;;5066302;28;19916;-67
2022/08/28 05:54:15;;;;;;;;;;;18.50;77.30;;;;;;5066545;28;19912;-68
2022/08/28 05:56:41;;;;;;;;;;;18.50;77.30;;;;;;5066443;28;19913;-67
2022/08/28 05:59:07;;;;;;;;;;;18.50;77.20;;;;;;5066324;28;19913;-67
2022/08/28 06:01:35;;;;;;;;;;;18.50;77.20;;;;;;5065815;28;20019;-67
2022/08/28 06:04:06;;;;;;;;;;;18.50;77.20;;;;;;5065527;28;20556;-67
2022/08/28 06:06:37;;;;;;;;;;;18.50;77.20;;;;;;5066618;28;20418;-67
2022/08/28 06:09:04;;;;;;;;;;;18.50;77.20;;;;;;5066361;28;20377;-67
2022/08/28 06:11:31;;;;;;;;;;;18.50;77.20;;;;;;5066116;28;20401;-67
2022/08/28 06:14:00;;;;;;;;;;;18.50;77.20;;;;;;5066244;28;20255;-67
2022/08/28 06:16:26;;;;;;;;;;;18.60;77.20;;;;;;5066204;28;19944;-67
2022/08/28 06:18:51;;;;;;;;;;;18.60;77.20;;;;;;5047876;28;19962;-67
2022/08/28 06:21:17;;;;;;;;;;;18.60;77.80;;;;;;5064204;28;19917;-67
2022/08/28 06:23:43;;;;;;;;;;;18.60;77.20;;;;;;5066262;28;20280;-67
2022/08/28 06:26:08;;;;;;;;;;;18.60;77.10;;;;;;5066057;28;20510;-67
2022/08/28 06:28:34;;;;;;;;;;;18.60;77.20;;;;;;5066430;28;19917;-67
2022/08/28 06:31:01;;;;;;;;;;;18.60;77.10;;;;;;5065612;28;19916;-67
2022/08/28 06:33:27;;;;;;;;;;;18.70;77.10;;;;;;5061306;28;20074;-67
2022/08/28 06:35:53;;;;;;;;;;;18.60;77.00;;;;;;5066225;28;20034;-67
2022/08/28 06:38:20;;;;;;;;;;;18.70;77.00;;;;;;5066807;28;19912;-68
2022/08/28 06:40:47;;;;;;;;;;;18.70;77.00;;;;;;5065646;28;20284;-67
2022/08/28 06:43:13;;;;;;;;;;;18.70;77.00;;;;;;5065893;28;19998;-67
2022/08/28 06:45:41;;;;;;;;;;;18.80;77.00;;;;;;5066925;28;20389;-67
2022/08/28 06:48:07;;;;;;;;;;;18.80;76.90;;;;;;5066265;28;19919;-67
2022/08/28 06:50:33;;;;;;;;;;;18.80;76.90;;;;;;5047623;28;19920;-67
2022/08/28 06:53:00;;;;;;;;;;;18.80;76.80;;;;;;5065476;28;19912;-67
2022/08/28 06:55:25;;;;;;;;;;;18.80;76.80;;;;;;5065206;28;20661;-67
2022/08/28 06:57:51;;;;;;;;;;;18.80;76.70;;;;;;5065575;28;19913;-67
2022/08/28 07:00:17;;;;;;;;;;;18.80;76.70;;;;;;5065508;28;19913;-67
2022/08/28 07:02:42;;;;;;;;;;;18.90;76.80;;;;;;5064392;28;20238;-67
2022/08/28 07:05:08;;;;;;;;;;;18.90;76.80;;;;;;5047247;28;20621;-67
2022/08/28 07:07:33;;;;;;;;;;;18.90;76.70;;;;;;5047589;28;20254;-67
2022/08/28 07:09:59;;;;;;;;;;;18.90;76.70;;;;;;5065534;28;19912;-67
2022/08/28 07:12:24;;;;;;;;;;;18.90;76.70;;;;;;5064498;28;19924;-67
2022/08/28 07:14:50;;;;;;;;;;;18.90;76.70;;;;;;5065754;28;20075;-67
2022/08/28 07:17:16;;;;;;;;;;;19.00;76.70;;;;;;5065369;28;19908;-67
2022/08/28 07:19:41;;;;;;;;;;;18.90;76.70;;;;;;5065427;28;19919;-67
2022/08/28 07:22:07;;;;;;;;;;;18.90;76.60;;;;;;5065126;28;19966;-67
2022/08/28 07:24:32;;;;;;;;;;;19.00;76.60;;;;;;5065718;28;19913;-67
2022/08/28 07:26:58;;;;;;;;;;;19.00;76.60;;;;;;5065331;28;19913;-67
2022/08/28 07:29:23;;;;;;;;;;;19.00;76.50;;;;;;5064582;28;19913;-67
2022/08/28 07:31:50;;;;;;;;;;;19.00;76.50;;;;;;5064793;28;19917;-67
2022/08/28 07:34:16;;;;;;;;;;;19.00;76.60;;;;;;5059890;28;19988;-67
2022/08/28 07:36:43;;;;;;;;;;;19.00;76.50;;;;;;5065618;28;19995;-67
2022/08/28 07:39:09;;;;;;;;;;;19.00;76.50;;;;;;5065703;28;20026;-67
2022/08/28 07:41:37;;;;;;;;;;;19.10;76.50;;;;;;5065599;28;19913;-67
2022/08/28 07:46:51;;;;;;;;;;;19.00;76.40;;;;;;5068407;28;20530;-67
2022/08/28 07:49:17;;;;;;;;;;;19.00;76.40;;;;;;5069259;28;20278;-67
2022/08/28 07:51:43;;;;;;;;;;;19.00;76.40;;;;;;5068675;28;19919;-67
2022/08/28 07:54:08;;;;;;;;;;;19.00;76.40;;;;;;5069027;28;19999;-67
2022/08/28 07:56:39;;;;;;;;;;;19.10;76.40;;;;;;5069181;28;20489;-67
2022/08/28 07:59:05;;;;;;;;;;;19.00;76.20;;;;;;5069254;28;19916;-67
2022/08/28 08:01:34;;;;;;;;;;;19.00;76.30;;;;;;5068385;28;19912;-67
2022/08/28 08:04:01;;;;;;;;;;;19.10;76.30;;;;;;5049984;28;20288;-67
2022/08/28 08:06:27;;;;;;;;;;;19.10;76.20;;;;;;5050941;28;19936;-67
2022/08/28 08:08:53;;;;;;;;;;;19.10;76.10;;;;;;5068696;28;19918;-67
2022/08/28 08:11:19;;;;;;;;;;;19.20;76.00;;;;;;5068914;28;20292;-67
2022/08/28 08:13:46;;;;;;;;;;;19.20;75.90;;;;;;5069363;28;19920;-67
2022/08/28 08:16:13;;;;;;;;;;;19.20;75.90;;;;;;5068220;28;19916;-67
2022/08/28 08:18:40;;;;;;;;;;;19.20;75.90;;;;;;5069047;28;20007;-67
2022/08/28 08:21:08;;;;;;;;;;;19.20;75.90;;;;;;5068050;28;19944;-67
2022/08/28 08:23:33;;;;;;;;;;;19.20;75.90;;;;;;5067455;28;20327;-67
2022/08/28 08:26:00;;;;;;;;;;;19.20;75.90;;;;;;5068664;28;20002;-67
2022/08/28 08:28:26;;;;;;;;;;;19.30;75.90;;;;;;5068324;28;20340;-67
2022/08/28 08:31:05;;;;;;;;;;;19.30;75.80;;;;;;5067976;28;19917;-67
2022/08/28 08:33:31;;;;;;;;;;;19.30;75.70;;;;;;5067553;28;19924;-67
2022/08/28 08:35:57;;;;;;;;;;;19.40;75.70;;;;;;5067961;28;19916;-67
2022/08/28 08:38:23;;;;;;;;;;;19.30;75.50;;;;;;5068321;28;19912;-67
2022/08/28 08:40:48;;;;;;;;;;;19.40;75.50;;;;;;5067846;28;20242;-67
2022/08/28 08:43:17;;;;;;;;;;;19.40;75.30;;;;;;5068097;28;19916;-67
2022/08/28 08:45:43;;;;;;;;;;;19.50;75.10;;;;;;5068783;28;19912;-67
2022/08/28 08:48:14;;;;;;;;;;;19.60;74.90;;;;;;5068705;28;19912;-67
2022/08/28 08:50:40;;;;;;;;;;;19.60;74.90;;;;;;5068527;28;19928;-67
2022/08/28 08:53:24;;;;;;;;;;;19.70;74.60;;;;;;5069689;28;19916;-67
2022/08/28 08:55:51;;;;;;;;;;;19.80;74.50;;;;;;5049953;28;19919;-67
2022/08/28 08:58:31;;;;;;;;;;;19.80;74.30;;;;;;5067936;28;20007;-68
2022/08/28 09:00:59;;;;;;;;;;;19.80;74.30;;;;;;5067532;28;19922;-67
2022/08/28 09:03:39;;;;;;;;;;;19.80;74.50;;;;;;5067143;28;19923;-67
2022/08/28 09:06:06;;;;;;;;;;;19.80;74.60;;;;;;5068155;28;19923;-67
2022/08/28 09:08:34;;;;;;;;;;;19.70;74.70;;;;;;5068062;28;19912;-67
2022/08/28 09:11:12;;;;;;;;;;;19.70;74.70;;;;;;5067190;28;20023;-67
2022/08/28 09:14:01;;;;;;;;;;;19.70;74.60;;;;;;5067419;28;19948;-67
2022/08/28 09:16:38;;;;;;;;;;;19.80;74.60;;;;;;5056448;28;19950;-67
2022/08/28 09:19:05;;;;;;;;;;;19.80;74.50;;;;;;5067089;28;19934;-67
2022/08/28 09:21:32;;;;;;;;;;;19.80;74.50;;;;;;5066609;28;19912;-67
2022/08/28 09:24:01;;;;;;;;;;;19.80;74.40;;;;;;5065835;28;19920;-67
2022/08/28 09:26:27;;;;;;;;;;;19.90;74.20;;;;;;5065852;28;19920;-67
2022/08/28 09:29:15;;;;;;;;;;;19.90;74.10;;;;;;5064002;28;20568;-67
2022/08/28 09:31:41;;;;;;;;;;;19.90;74.00;;;;;;5049461;28;19928;-67
2022/08/28 09:34:22;;;;;;;;;;;20.00;73.90;;;;;;5049578;28;19912;-67
2022/08/28 09:36:48;;;;;;;;;;;20.00;73.90;;;;;;5067270;28;19920;-67
2022/08/28 09:39:16;;;;;;;;;;;20.00;73.90;;;;;;5049345;28;19913;-67
2022/08/28 09:44:26;;;;;;;;;;;20.00;73.90;;;;;;5066480;28;19974;-67
2022/08/28 09:46:52;;;;;;;;;;;20.00;73.70;;;;;;5067247;28;19916;-67
2022/08/28 09:49:26;;;;;;;;;;;20.10;73.50;;;;;;5067137;28;20003;-67
2022/08/28 09:51:52;;;;;;;;;;;20.10;73.40;;;;;;5066723;28;19917;-67
2022/08/28 09:54:21;;;;;;;;;;;20.10;73.20;;;;;;5049004;28;20284;-67
2022/08/28 09:56:48;;;;;;;;;;;20.20;73.30;;;;;;5067060;28;19912;-67
2022/08/28 09:59:15;;;;;;;;;;;20.20;73.10;;;;;;5066144;28;19962;-67
2022/08/28 10:01:41;;;;;;;;;;;20.20;73.00;;;;;;5066044;28;19912;-67
2022/08/28 10:04:06;;;;;;;;;;;20.30;72.80;;;;;;5064948;28;19913;-67
2022/08/28 10:06:33;;;;;;;;;;;20.30;72.70;;;;;;5065188;28;20385;-67
2022/08/28 10:09:05;;;;;;;;;;;20.40;72.60;;;;;;5065531;28;20026;-67
2022/08/28 10:11:36;;;;;;;;;;;20.40;72.40;;;;;;5064806;28;19959;-67
2022/08/28 10:14:20;;;;;;;;;;;20.50;72.20;;;;;;5065913;28;19919;-67
2022/08/28 10:16:51;;;;;;;;;;;20.60;72.10;;;;;;5065615;28;19921;-67
2022/08/28 10:19:24;;;;;;;;;;;20.60;72.00;;;;;;5066762;28;19908;-67
2022/08/28 10:21:56;;;;;;;;;;;20.60;71.80;;;;;;5066537;28;19913;-67
2022/08/28 10:24:21;;;;;;;;;;;20.60;72.10;;;;;;5047819;28;19908;-67
2022/08/28 10:26:54;;;;;;;;;;;20.70;71.90;;;;;;5066128;28;20622;-67
2022/08/28 10:29:47;;;;;;;;;;;20.70;71.80;;;;;;5065616;28;19923;-67
2022/08/28 10:32:31;;;;;;;;;;;20.80;71.80;;;;;;5032399;28;20579;-68
2022/08/28 10:35:15;;;;;;;;;;;20.80;71.70;;;;;;5060795;28;19970;-67
2022/08/28 10:38:01;;;;;;;;;;;20.90;71.60;;;;;;5063319;28;20425;-67
2022/08/28 10:40:35;;;;;;;;;;;21.00;71.60;;;;;;5048101;28;19912;-67
2022/08/28 10:43:06;;;;;;;;;;;21.00;71.50;;;;;;5047529;28;19916;-67
2022/08/28 10:45:33;;;;;;;;;;;21.10;71.30;;;;;;5066092;28;19921;-67
2022/08/28 10:48:00;;;;;;;;;;;21.10;71.30;;;;;;5066762;28;20277;-67
2022/08/28 10:50:28;;;;;;;;;;;21.10;71.10;;;;;;5048781;28;19923;-67
2022/08/28 10:52:53;;;;;;;;;;;21.10;71.40;;;;;;5065404;28;20384;-68
2022/08/28 10:55:24;;;;;;;;;;;21.20;71.30;;;;;;5065433;28;19912;-67
2022/08/28 10:58:01;;;;;;;;;;;21.30;71.20;;;;;;5059372;28;19913;-68
2022/08/28 11:00:27;;;;;;;;;;;21.40;71.00;;;;;;5065428;28;19967;-67
2022/08/28 11:02:53;;;;;;;;;;;21.50;70.80;;;;;;5064485;28;19909;-67
2022/08/28 11:05:22;;;;;;;;;;;21.50;70.60;;;;;;5064515;28;19935;-67
2022/08/28 11:07:49;;;;;;;;;;;21.60;70.50;;;;;;5047183;28;19962;-67
2022/08/28 11:10:18;;;;;;;;;;;21.70;70.40;;;;;;5065661;28;19920;-67
2022/08/28 11:12:43;;;;;;;;;;;21.80;70.30;;;;;;5047613;28;19923;-68
2022/08/28 11:15:27;;;;;;;;;;;21.90;70.20;;;;;;5065342;28;19912;-68
2022/08/28 11:18:07;;;;;;;;;;;22.00;69.90;;;;;;5046672;28;19912;-68
2022/08/28 11:20:33;;;;;;;;;;;22.10;69.80;;;;;;5069403;28;19924;-68
2022/08/28 11:22:59;;;;;;;;;;;22.20;69.80;;;;;;5069991;28;19920;-68
2022/08/28 11:25:40;;;;;;;;;;;22.30;69.50;;;;;;5070968;28;19917;-68
2022/08/28 11:28:24;;;;;;;;;;;22.40;69.40;;;;;;5070016;28;19917;-68
2022/08/28 11:31:05;;;;;;;;;;;22.50;69.20;;;;;;5069257;28;19920;-68
2022/08/28 11:33:42;;;;;;;;;;;22.60;69.00;;;;;;5065002;28;19928;-69
2022/08/28 11:36:17;;;;;;;;;;;22.70;68.90;;;;;;5063280;28;19919;-69
2022/08/28 11:38:43;;;;;;;;;;;22.60;69.10;;;;;;5062010;28;19958;-68
2022/08/28 11:41:19;;;;;;;;;;;22.70;69.00;;;;;;5063802;28;19912;-69
2022/08/28 11:43:45;;;;;;;;;;;22.80;69.00;;;;;;5061507;28;20091;-69
2022/08/28 11:46:10;;;;;;;;;;;22.90;69.10;;;;;;5042999;28;19920;-69
2022/08/28 11:48:38;;;;;;;;;;;23.00;68.80;;;;;;5063223;28;19956;-69
2022/08/28 11:51:16;;;;;;;;;;;23.10;68.80;;;;;;5043709;28;19916;-69
2022/08/28 11:53:59;;;;;;;;;;;23.10;68.70;;;;;;5059457;28;20593;-69
2022/08/28 11:56:37;;;;;;;;;;;23.20;68.60;;;;;;5061764;28;20300;-68
2022/08/28 11:59:24;;;;;;;;;;;23.30;68.70;;;;;;5062013;28;19913;-68
2022/08/28 12:01:50;;;;;;;;;;;23.30;68.30;;;;;;5061868;28;19912;-68
2022/08/28 12:04:17;;;;;;;;;;;23.40;68.00;;;;;;5062764;28;19931;-68
2022/08/28 12:06:53;;;;;;;;;;;23.50;67.80;;;;;;5050316;28;19924;-68
2022/08/28 12:09:24;;;;;;;;;;;23.60;67.70;;;;;;5068757;28;20374;-68
2022/08/28 12:11:54;;;;;;;;;;;23.60;67.80;;;;;;5067907;28;19922;-68
2022/08/28 12:14:28;;;;;;;;;;;23.70;67.60;;;;;;5068267;28;19919;-68
2022/08/28 12:16:57;;;;;;;;;;;23.60;68.50;;;;;;5067907;28;20621;-68
2022/08/28 12:19:25;;;;;;;;;;;23.50;68.00;;;;;;5067691;28;20383;-68
2022/08/28 12:21:53;;;;;;;;;;;23.60;68.00;;;;;;5067093;28;19916;-68
2022/08/28 12:24:20;;;;;;;;;;;23.70;68.80;;;;;;5065780;28;19912;-68
2022/08/28 12:26:48;;;;;;;;;;;23.70;68.10;;;;;;5065655;28;19927;-68
2022/08/28 12:29:29;;;;;;;;;;;23.80;67.70;;;;;;5049383;28;19912;-68
2022/08/28 12:32:10;;;;;;;;;;;23.80;68.20;;;;;;5064900;28;19923;-69
2022/08/28 12:34:38;;;;;;;;;;;23.90;67.90;;;;;;5066493;28;19924;-68
2022/08/28 12:37:06;;;;;;;;;;;23.90;68.00;;;;;;5049125;28;20009;-68
2022/08/28 12:39:32;;;;;;;;;;;23.90;67.60;;;;;;5066620;28;19986;-68
2022/08/28 12:42:00;;;;;;;;;;;23.90;67.70;;;;;;5066766;28;20490;-69
2022/08/28 12:44:27;;;;;;;;;;;24.00;67.50;;;;;;5067138;28;20517;-68
2022/08/28 12:46:52;;;;;;;;;;;24.10;67.60;;;;;;5067361;28;20226;-68
2022/08/28 12:49:32;;;;;;;;;;;24.00;67.60;;;;;;5067425;28;19913;-69
2022/08/28 12:52:18;;;;;;;;;;;24.10;67.30;;;;;;5066163;28;19913;-68
2022/08/28 12:54:45;;;;;;;;;;;24.10;67.20;;;;;;5066619;28;20612;-68
2022/08/28 12:57:12;;;;;;;;;;;24.20;67.60;;;;;;5066477;28;19917;-69
2022/08/28 12:59:42;;;;;;;;;;;24.20;67.80;;;;;;5066634;28;19951;-68
2022/08/28 13:02:19;;;;;;;;;;;24.30;67.70;;;;;;5065457;28;20320;-68
2022/08/28 13:04:51;;;;;;;;;;;24.30;67.80;;;;;;5067284;28;19912;-69
2022/08/28 13:07:17;;;;;;;;;;;24.40;67.50;;;;;;5067215;28;20585;-68
2022/08/28 13:09:47;;;;;;;;;;;24.40;67.80;;;;;;5059948;28;19917;-69
2022/08/28 13:12:22;;;;;;;;;;;24.50;67.40;;;;;;5066235;28;19917;-68
2022/08/28 13:14:51;;;;;;;;;;;24.50;67.60;;;;;;5066102;28;19927;-68
2022/08/28 13:17:35;;;;;;;;;;;24.40;67.50;;;;;;5065650;28;19913;-68
2022/08/28 13:20:02;;;;;;;;;;;24.30;67.60;;;;;;5063943;28;19913;-68
2022/08/28 13:22:32;;;;;;;;;;;24.40;67.40;;;;;;5048049;28;20368;-68
2022/08/28 13:24:59;;;;;;;;;;;24.50;67.60;;;;;;5066589;28;19917;-68
2022/08/28 13:27:24;;;;;;;;;;;24.50;67.50;;;;;;5062851;28;19916;-68
2022/08/28 13:29:53;;;;;;;;;;;24.60;67.80;;;;;;5066562;28;19919;-69
2022/08/28 13:32:18;;;;;;;;;;;24.60;67.50;;;;;;5047698;28;20011;-68
2022/08/28 13:35:03;;;;;;;;;;;24.70;67.30;;;;;;5066340;28;20015;-68
2022/08/28 13:37:46;;;;;;;;;;;24.70;67.00;;;;;;5065782;28;19923;-69
2022/08/28 13:40:14;;;;;;;;;;;24.80;67.30;;;;;;5048116;28;19955;-69
2022/08/28 13:42:39;;;;;;;;;;;24.90;67.20;;;;;;5046979;28;19912;-69
2022/08/28 13:45:06;;;;;;;;;;;25.00;67.00;;;;;;5066124;28;19920;-69
2022/08/28 13:47:32;;;;;;;;;;;25.00;66.80;;;;;;5059426;28;19924;-69
2022/08/28 13:49:57;;;;;;;;;;;25.00;66.60;;;;;;5063434;28;19909;-68
2022/08/28 13:52:23;;;;;;;;;;;25.00;66.60;;;;;;5065271;28;19916;-68
2022/08/28 13:54:49;;;;;;;;;;;25.10;66.30;;;;;;5066143;28;20969;-68
2022/08/28 13:57:15;;;;;;;;;;;25.20;66.30;;;;;;5065341;28;20099;-69
2022/08/28 13:59:40;;;;;;;;;;;25.20;66.30;;;;;;5047683;28;19977;-68
2022/08/28 14:04:52;;;;;;;;;;;25.30;66.50;;;;;;5065666;28;20277;-69
2022/08/28 14:07:18;;;;;;;;;;;25.30;66.10;;;;;;5065359;28;19913;-69
2022/08/28 14:09:44;;;;;;;;;;;25.40;66.00;;;;;;5065724;28;19935;-69
2022/08/28 14:12:09;;;;;;;;;;;25.40;66.50;;;;;;5064595;28;19988;-68
2022/08/28 14:14:36;;;;;;;;;;;25.50;65.50;;;;;;5047654;28;20023;-68
2022/08/28 14:17:01;;;;;;;;;;;25.50;65.30;;;;;;5065677;28;19967;-69
2022/08/28 14:19:27;;;;;;;;;;;25.60;65.40;;;;;;5065379;28;19943;-69
2022/08/28 14:21:53;;;;;;;;;;;25.60;65.40;;;;;;5064916;28;19963;-69
2022/08/28 14:24:19;;;;;;;;;;;25.60;65.50;;;;;;5046941;28;19948;-68
2022/08/28 14:26:45;;;;;;;;;;;25.60;65.40;;;;;;5064384;28;19916;-68
2022/08/28 14:29:12;;;;;;;;;;;25.60;65.10;;;;;;5064349;28;20007;-69
2022/08/28 14:31:39;;;;;;;;;;;25.70;64.70;;;;;;5065032;28;20395;-69
2022/08/28 14:34:06;;;;;;;;;;;25.80;63.70;;;;;;5061927;28;19919;-68
2022/08/28 14:36:32;;;;;;;;;;;25.70;63.40;;;;;;5065792;28;20069;-69
2022/08/28 14:38:59;;;;;;;;;;;25.80;63.30;;;;;;5065744;28;20010;-68